sensor_id;sensor_type;location;lat;lon;timestamp;P1;durP1;ratioP1;P2;durP2;ratioP2
3633;SDS011;1833;42.718;23.270;2023-12-20T07:47:26;180.30;;;64.00;;
3633;SDS011;1833;42.718;23.270;2023-12-20T07:49:54;129.00;;;56.30;;
3633;SDS011;1833;42.718;23.270;2023-12-20T07:52:21;248.20;;;67.00;;
3633;SDS011;1833;42.718;23.270;2023-12-20T08:15:05;146.43;;;66.20;;
3633;SDS011;1833;42.718;23.270;2023-12-20T08:17:33;120.33;;;59.43;;
3633;SDS011;1833;42.718;23.270;2023-12-20T08:20:00;121.40;;;58.17;;
3633;SDS011;1833;42.718;23.270;2023-12-20T08:22:29;156.60;;;67.57;;
3633;SDS011;1833;42.718;23.270;2023-12-20T08:24:59;176.80;;;69.27;;
3633;SDS011;1833;42.718;23.270;2023-12-20T08:27:26;173.70;;;67.97;;
3633;SDS011;1833;42.718;23.270;2023-12-20T08:29:54;152.63;;;67.20;;
3633;SDS011;1833;42.718;23.270;2023-12-20T08:32:26;152.23;;;67.47;;
3633;SDS011;1833;42.718;23.270;2023-12-20T08:35:07;155.93;;;70.47;;
3633;SDS011;1833;42.718;23.270;2023-12-20T08:37:35;191.67;;;74.27;;
3633;SDS011;1833;42.718;23.270;2023-12-20T08:40:03;168.80;;;75.70;;
3633;SDS011;1833;42.718;23.270;2023-12-20T08:42:33;178.60;;;74.83;;
3633;SDS011;1833;42.718;23.270;2023-12-20T08:45:04;156.37;;;69.77;;
3633;SDS011;1833;42.718;23.270;2023-12-20T08:47:51;159.03;;;72.83;;
3633;SDS011;1833;42.718;23.270;2023-12-20T08:50:19;157.07;;;70.43;;
3633;SDS011;1833;42.718;23.270;2023-12-20T08:52:48;190.67;;;75.03;;
3633;SDS011;1833;42.718;23.270;2023-12-20T08:55:18;221.20;;;93.17;;
3633;SDS011;1833;42.718;23.270;2023-12-20T08:57:46;143.70;;;73.63;;
3633;SDS011;1833;42.718;23.270;2023-12-20T09:00:14;168.27;;;78.40;;
3633;SDS011;1833;42.718;23.270;2023-12-20T09:02:43;217.97;;;86.07;;
3633;SDS011;1833;42.718;23.270;2023-12-20T09:05:10;182.83;;;81.03;;
3633;SDS011;1833;42.718;23.270;2023-12-20T09:07:38;186.03;;;79.40;;
3633;SDS011;1833;42.718;23.270;2023-12-20T09:10:19;207.50;;;82.33;;
3633;SDS011;1833;42.718;23.270;2023-12-20T09:13:04;212.80;;;90.43;;
3633;SDS011;1833;42.718;23.270;2023-12-20T09:15:33;199.67;;;81.00;;
3633;SDS011;1833;42.718;23.270;2023-12-20T09:18:02;179.00;;;85.10;;
3633;SDS011;1833;42.718;23.270;2023-12-20T09:20:32;180.37;;;75.70;;
3633;SDS011;1833;42.718;23.270;2023-12-20T09:23:00;150.00;;;66.47;;
3633;SDS011;1833;42.718;23.270;2023-12-20T09:31:15;180.47;;;79.70;;
3633;SDS011;1833;42.718;23.270;2023-12-20T18:13:31;348.03;;;123.13;;
3633;SDS011;1833;42.718;23.270;2023-12-20T18:39:09;356.53;;;121.03;;
3633;SDS011;1833;42.718;23.270;2023-12-20T18:41:45;355.17;;;118.37;;
3633;SDS011;1833;42.718;23.270;2023-12-20T18:44:15;376.30;;;124.40;;
3633;SDS011;1833;42.718;23.270;2023-12-20T18:46:43;345.17;;;120.40;;
3633;SDS011;1833;42.718;23.270;2023-12-20T18:49:11;335.20;;;119.03;;
3633;SDS011;1833;42.718;23.270;2023-12-20T18:51:38;380.33;;;120.77;;
3633;SDS011;1833;42.718;23.270;2023-12-20T18:54:07;406.17;;;125.53;;
3633;SDS011;1833;42.718;23.270;2023-12-20T18:56:35;376.60;;;129.60;;
3633;SDS011;1833;42.718;23.270;2023-12-20T18:59:05;381.10;;;121.83;;
3633;SDS011;1833;42.718;23.270;2023-12-20T19:01:32;348.73;;;130.47;;
3633;SDS011;1833;42.718;23.270;2023-12-20T19:03:59;316.87;;;124.07;;
3633;SDS011;1833;42.718;23.270;2023-12-20T19:06:31;343.10;;;136.40;;
3633;SDS011;1833;42.718;23.270;2023-12-20T19:11:35;346.80;;;135.87;;
3633;SDS011;1833;42.718;23.270;2023-12-20T19:16:42;386.00;;;145.40;;
3633;SDS011;1833;42.718;23.270;2023-12-20T19:19:13;371.13;;;142.83;;
3633;SDS011;1833;42.718;23.270;2023-12-20T19:21:40;355.33;;;135.17;;
3633;SDS011;1833;42.718;23.270;2023-12-20T19:24:08;355.23;;;135.53;;
3633;SDS011;1833;42.718;23.270;2023-12-20T19:26:38;451.47;;;142.90;;
3633;SDS011;1833;42.718;23.270;2023-12-20T19:29:05;347.90;;;132.90;;
3633;SDS011;1833;42.718;23.270;2023-12-20T19:31:42;385.50;;;140.43;;
3633;SDS011;1833;42.718;23.270;2023-12-20T19:34:13;365.30;;;136.50;;
3633;SDS011;1833;42.718;23.270;2023-12-20T19:36:46;377.03;;;129.80;;
3633;SDS011;1833;42.718;23.270;2023-12-20T19:39:14;340.43;;;132.27;;
3633;SDS011;1833;42.718;23.270;2023-12-20T19:41:47;399.40;;;130.40;;
3633;SDS011;1833;42.718;23.270;2023-12-20T19:44:15;303.10;;;127.20;;
3633;SDS011;1833;42.718;23.270;2023-12-20T19:46:45;398.90;;;133.23;;
3633;SDS011;1833;42.718;23.270;2023-12-20T19:49:13;371.47;;;136.80;;
3633;SDS011;1833;42.718;23.270;2023-12-20T19:51:41;386.80;;;134.50;;
3633;SDS011;1833;42.718;23.270;2023-12-20T19:54:13;532.70;;;145.80;;
3633;SDS011;1833;42.718;23.270;2023-12-20T19:56:40;364.60;;;139.47;;
3633;SDS011;1833;42.718;23.270;2023-12-20T19:59:09;335.07;;;126.27;;
3633;SDS011;1833;42.718;23.270;2023-12-20T20:01:37;327.33;;;130.33;;
3633;SDS011;1833;42.718;23.270;2023-12-20T20:04:06;417.00;;;141.20;;
3633;SDS011;1833;42.718;23.270;2023-12-20T20:09:46;464.40;;;137.87;;
3633;SDS011;1833;42.718;23.270;2023-12-20T20:12:16;521.80;;;142.40;;
3633;SDS011;1833;42.718;23.270;2023-12-20T20:14:51;532.20;;;147.40;;
3633;SDS011;1833;42.718;23.270;2023-12-20T20:17:22;466.27;;;139.57;;
3633;SDS011;1833;42.718;23.270;2023-12-20T20:19:50;412.70;;;136.57;;
3633;SDS011;1833;42.718;23.270;2023-12-20T20:22:17;459.27;;;135.70;;
3633;SDS011;1833;42.718;23.270;2023-12-20T20:24:47;512.50;;;137.93;;
3633;SDS011;1833;42.718;23.270;2023-12-20T20:27:15;454.77;;;136.63;;
3633;SDS011;1833;42.718;23.270;2023-12-20T20:29:53;504.67;;;145.33;;
3633;SDS011;1833;42.718;23.270;2023-12-20T20:32:24;528.93;;;143.37;;
3633;SDS011;1833;42.718;23.270;2023-12-20T20:35:14;368.13;;;131.90;;
3633;SDS011;1833;42.718;23.270;2023-12-20T20:37:45;402.70;;;133.40;;
3633;SDS011;1833;42.718;23.270;2023-12-20T20:40:15;420.47;;;133.67;;
3633;SDS011;1833;42.718;23.270;2023-12-20T20:42:43;393.83;;;134.40;;
3633;SDS011;1833;42.718;23.270;2023-12-20T20:45:12;576.73;;;150.00;;
3633;SDS011;1833;42.718;23.270;2023-12-20T20:47:41;489.87;;;145.37;;
3633;SDS011;1833;42.718;23.270;2023-12-20T20:50:09;496.87;;;147.30;;
3633;SDS011;1833;42.718;23.270;2023-12-20T20:52:36;492.40;;;143.30;;
3633;SDS011;1833;42.718;23.270;2023-12-20T20:55:04;550.27;;;164.53;;
3633;SDS011;1833;42.718;23.270;2023-12-20T20:57:32;537.67;;;159.63;;
3633;SDS011;1833;42.718;23.270;2023-12-20T21:00:00;465.50;;;144.43;;
3633;SDS011;1833;42.718;23.270;2023-12-20T21:02:27;597.73;;;153.87;;
3633;SDS011;1833;42.718;23.270;2023-12-20T21:04:56;454.30;;;143.93;;
3633;SDS011;1833;42.718;23.270;2023-12-20T21:07:24;425.63;;;140.53;;
3633;SDS011;1833;42.718;23.270;2023-12-20T21:09:52;399.50;;;154.53;;
3633;SDS011;1833;42.718;23.270;2023-12-20T21:12:19;604.40;;;290.63;;
3633;SDS011;1833;42.718;23.270;2023-12-20T21:14:50;441.30;;;153.77;;
3633;SDS011;1833;42.718;23.270;2023-12-20T21:17:17;431.27;;;140.07;;
3633;SDS011;1833;42.718;23.270;2023-12-20T21:19:47;459.47;;;139.87;;
3633;SDS011;1833;42.718;23.270;2023-12-20T21:22:16;474.27;;;134.50;;
3633;SDS011;1833;42.718;23.270;2023-12-20T21:24:46;323.70;;;124.40;;
3633;SDS011;1833;42.718;23.270;2023-12-20T21:27:15;355.67;;;123.10;;
3633;SDS011;1833;42.718;23.270;2023-12-20T21:29:48;468.27;;;132.37;;
3633;SDS011;1833;42.718;23.270;2023-12-20T21:32:15;388.20;;;123.73;;
3633;SDS011;1833;42.718;23.270;2023-12-20T21:34:42;339.00;;;118.60;;
3633;SDS011;1833;42.718;23.270;2023-12-20T21:37:19;331.70;;;117.07;;
3633;SDS011;1833;42.718;23.270;2023-12-20T21:39:53;303.23;;;115.57;;
3633;SDS011;1833;42.718;23.270;2023-12-20T21:42:23;340.50;;;124.10;;
3633;SDS011;1833;42.718;23.270;2023-12-20T21:44:55;335.33;;;120.50;;
3633;SDS011;1833;42.718;23.270;2023-12-20T21:47:23;354.20;;;124.77;;
3633;SDS011;1833;42.718;23.270;2023-12-20T21:49:52;481.70;;;129.43;;
3633;SDS011;1833;42.718;23.270;2023-12-20T21:52:21;323.30;;;119.37;;
3633;SDS011;1833;42.718;23.270;2023-12-20T21:54:48;283.37;;;110.20;;
3633;SDS011;1833;42.718;23.270;2023-12-20T21:57:17;339.83;;;122.77;;
3633;SDS011;1833;42.718;23.270;2023-12-20T21:59:45;335.10;;;114.73;;
3633;SDS011;1833;42.718;23.270;2023-12-20T22:02:15;338.03;;;123.47;;
3633;SDS011;1833;42.718;23.270;2023-12-20T22:04:45;403.53;;;122.93;;
3633;SDS011;1833;42.718;23.270;2023-12-20T22:07:13;339.90;;;119.80;;
3633;SDS011;1833;42.718;23.270;2023-12-20T22:09:42;327.57;;;121.47;;
3633;SDS011;1833;42.718;23.270;2023-12-20T22:12:11;379.80;;;124.90;;
3633;SDS011;1833;42.718;23.270;2023-12-20T22:14:38;360.07;;;119.10;;
3633;SDS011;1833;42.718;23.270;2023-12-20T22:17:05;395.40;;;117.47;;
3633;SDS011;1833;42.718;23.270;2023-12-20T22:19:33;365.63;;;115.67;;
3633;SDS011;1833;42.718;23.270;2023-12-20T22:22:00;378.70;;;129.20;;
3633;SDS011;1833;42.718;23.270;2023-12-20T22:24:28;303.47;;;111.40;;
3633;SDS011;1833;42.718;23.270;2023-12-20T22:27:00;437.40;;;127.80;;
3633;SDS011;1833;42.718;23.270;2023-12-20T22:29:28;388.57;;;117.63;;
3633;SDS011;1833;42.718;23.270;2023-12-20T22:32:01;433.20;;;128.07;;
3633;SDS011;1833;42.718;23.270;2023-12-20T22:34:28;477.37;;;124.97;;
3633;SDS011;1833;42.718;23.270;2023-12-20T22:37:09;450.07;;;124.50;;
3633;SDS011;1833;42.718;23.270;2023-12-20T22:39:37;437.43;;;119.27;;
3633;SDS011;1833;42.718;23.270;2023-12-20T22:42:08;404.77;;;115.80;;
3633;SDS011;1833;42.718;23.270;2023-12-20T22:44:36;197.00;;;79.43;;
3633;SDS011;1833;42.718;23.270;2023-12-20T22:47:04;420.93;;;118.17;;
3633;SDS011;1833;42.718;23.270;2023-12-20T22:49:35;270.33;;;105.57;;
3633;SDS011;1833;42.718;23.270;2023-12-20T22:52:04;366.53;;;107.43;;
3633;SDS011;1833;42.718;23.270;2023-12-20T22:54:31;337.37;;;104.07;;
3633;SDS011;1833;42.718;23.270;2023-12-20T22:57:00;376.23;;;115.87;;
3633;SDS011;1833;42.718;23.270;2023-12-20T22:59:29;346.47;;;107.20;;
3633;SDS011;1833;42.718;23.270;2023-12-20T23:01:56;307.53;;;103.20;;
3633;SDS011;1833;42.718;23.270;2023-12-20T23:04:24;332.73;;;101.77;;
3633;SDS011;1833;42.718;23.270;2023-12-20T23:06:51;304.80;;;104.10;;
3633;SDS011;1833;42.718;23.270;2023-12-20T23:09:18;225.43;;;99.37;;
3633;SDS011;1833;42.718;23.270;2023-12-20T23:11:49;223.27;;;97.60;;
3633;SDS011;1833;42.718;23.270;2023-12-20T23:14:17;285.10;;;111.20;;
3633;SDS011;1833;42.718;23.270;2023-12-20T23:16:46;238.93;;;100.10;;
3633;SDS011;1833;42.718;23.270;2023-12-20T23:19:13;213.87;;;92.80;;
3633;SDS011;1833;42.718;23.270;2023-12-20T23:21:42;203.97;;;89.90;;
3633;SDS011;1833;42.718;23.270;2023-12-20T23:24:16;218.50;;;91.30;;
3633;SDS011;1833;42.718;23.270;2023-12-20T23:26:43;115.47;;;66.43;;
3633;SDS011;1833;42.718;23.270;2023-12-20T23:29:13;89.43;;;50.50;;
3633;SDS011;1833;42.718;23.270;2023-12-20T23:31:41;60.07;;;38.30;;
3633;SDS011;1833;42.718;23.270;2023-12-20T23:34:13;51.50;;;36.27;;
3633;SDS011;1833;42.718;23.270;2023-12-20T23:36:41;51.03;;;35.43;;
3633;SDS011;1833;42.718;23.270;2023-12-20T23:39:10;34.60;;;30.50;;
3633;SDS011;1833;42.718;23.270;2023-12-20T23:41:37;45.50;;;35.60;;
3633;SDS011;1833;42.718;23.270;2023-12-20T23:44:08;37.23;;;33.10;;
3633;SDS011;1833;42.718;23.270;2023-12-20T23:46:35;36.70;;;27.77;;
3633;SDS011;1833;42.718;23.270;2023-12-20T23:49:03;36.80;;;33.20;;
3633;SDS011;1833;42.718;23.270;2023-12-20T23:51:31;41.67;;;36.77;;
3633;SDS011;1833;42.718;23.270;2023-12-20T23:53:59;39.20;;;32.60;;
3633;SDS011;1833;42.718;23.270;2023-12-20T23:56:29;34.07;;;28.57;;
3633;SDS011;1833;42.718;23.270;2023-12-20T23:58:58;41.70;;;35.93;;
